createdAt,value
2019-02-20T00:00:45.211Z,75.11
2019-02-20T00:03:18.261Z,75.69
2019-02-20T00:05:49.753Z,76.10
2019-02-20T00:08:24.349Z,76.07
2019-02-20T00:10:55.612Z,75.93
2019-02-20T00:13:27.059Z,75.79
2019-02-20T00:15:57.973Z,75.91
2019-02-20T00:18:28.851Z,76.03
2019-02-20T00:21:00.002Z,76.34
2019-02-20T00:23:31.075Z,76.14
2019-02-20T00:26:03.364Z,75.99
2019-02-20T00:28:34.540Z,75.91
2019-02-20T00:31:04.842Z,75.42
2019-02-20T00:33:35.095Z,75.27
2019-02-20T00:36:05.433Z,75.33
2019-02-20T00:38:42.755Z,74.93
2019-02-20T00:41:13.755Z,74.54
2019-02-20T00:43:50.436Z,74.25
2019-02-20T00:46:43.222Z,74.04
2019-02-20T00:49:22.319Z,73.90
2019-02-20T00:52:03.837Z,73.66
2019-02-20T00:54:36.684Z,73.45
2019-02-20T00:57:11.343Z,73.43
2019-02-20T00:59:42.857Z,73.63
2019-02-20T01:02:13.662Z,73.67
2019-02-20T01:04:49.544Z,73.54
2019-02-20T01:07:21.008Z,73.61
2019-02-20T01:09:53.671Z,73.82
2019-02-20T01:12:27.046Z,74.24
2019-02-20T01:14:58.214Z,74.97
2019-02-20T01:17:28.935Z,74.75
2019-02-20T01:19:59.703Z,74.72
2019-02-20T01:22:30.609Z,74.85
2019-02-20T01:25:01.425Z,74.80
2019-02-20T01:27:33.377Z,74.59
2019-02-20T01:30:09.025Z,74.43
2019-02-20T01:32:41.370Z,74.37
2019-02-20T01:35:14.495Z,74.44
2019-02-20T01:37:47.233Z,74.31
2019-02-20T01:40:18.126Z,73.90
2019-02-20T01:43:21.826Z,73.85
2019-02-20T01:45:52.858Z,73.63
2019-02-20T01:48:24.557Z,73.59
2019-02-20T01:50:55.826Z,73.41
2019-02-20T01:53:35.387Z,73.26
2019-02-20T01:56:07.880Z,73.06
2019-02-20T01:58:40.963Z,72.98
2019-02-20T02:01:11.767Z,72.74
2019-02-20T02:03:42.088Z,72.54
2019-02-20T02:06:16.560Z,72.27
2019-02-20T02:08:50.611Z,72.18
2019-02-20T02:11:21.949Z,72.07
2019-02-20T02:13:52.772Z,71.97
2019-02-20T02:16:23.725Z,72.02
2019-02-20T02:18:54.654Z,71.94
2019-02-20T02:21:25.644Z,71.86
2019-02-20T02:23:56.681Z,71.86
2019-02-20T02:26:27.782Z,71.92
2019-02-20T02:29:00.395Z,71.88
2019-02-20T02:31:33.556Z,71.94
2019-02-20T02:34:04.512Z,71.83
2019-02-20T02:36:36.044Z,71.68
2019-02-20T02:39:07.536Z,71.64
2019-02-20T02:41:38.541Z,71.65
2019-02-20T02:44:11.191Z,71.60
2019-02-20T02:46:42.142Z,71.53
2019-02-20T02:49:13.348Z,71.45
2019-02-20T02:51:44.249Z,71.50
2019-02-20T02:54:16.239Z,71.56
2019-02-20T02:56:47.103Z,71.74
2019-02-20T02:59:18.614Z,71.68
2019-02-20T03:01:51.341Z,71.57
2019-02-20T03:04:23.576Z,71.59
2019-02-20T03:06:54.622Z,71.54
2019-02-20T03:09:26.102Z,71.66
2019-02-20T03:11:57.482Z,71.61
2019-02-20T03:14:30.251Z,71.71
2019-02-20T03:17:01.228Z,71.65
2019-02-20T03:19:32.167Z,71.69
2019-02-20T03:22:04.526Z,71.54
2019-02-20T03:24:36.095Z,71.46
2019-02-20T03:27:08.952Z,71.40
2019-02-20T03:29:39.926Z,71.40
2019-02-20T03:32:14.850Z,71.17
2019-02-20T03:34:45.977Z,71.13
2019-02-20T03:37:17.059Z,70.98
2019-02-20T03:39:48.152Z,71.01
2019-02-20T03:42:18.933Z,71.01
2019-02-20T03:44:49.771Z,71.22
2019-02-20T03:47:20.686Z,71.66
2019-02-20T03:49:52.029Z,71.94
2019-02-20T03:52:23.043Z,71.86
2019-02-20T03:54:53.899Z,72.11
2019-02-20T03:57:28.500Z,71.85
2019-02-20T03:59:59.613Z,71.80
2019-02-20T04:02:30.915Z,71.51
2019-02-20T04:05:05.725Z,71.46
2019-02-20T04:07:44.658Z,71.32
2019-02-20T04:10:15.824Z,71.21
2019-02-20T04:12:47.920Z,70.92
2019-02-20T04:15:22.524Z,70.64
2019-02-20T04:17:53.579Z,70.40
2019-02-20T04:20:26.059Z,69.95
2019-02-20T04:22:57.428Z,69.48
2019-02-20T04:25:28.436Z,69.19
2019-02-20T04:28:00.777Z,68.76
2019-02-20T04:30:31.972Z,68.61
2019-02-20T04:33:02.847Z,68.21
2019-02-20T04:35:33.685Z,68.12
2019-02-20T04:38:04.625Z,67.87
2019-02-20T04:40:36.008Z,67.77
2019-02-20T04:43:13.010Z,67.27
2019-02-20T04:45:45.997Z,67.38
2019-02-20T04:48:41.936Z,66.93
2019-02-20T04:51:42.100Z,67.08
2019-02-20T04:54:41.796Z,66.88
2019-02-20T04:57:18.921Z,66.79
2019-02-20T04:59:50.568Z,66.83
2019-02-20T05:02:25.018Z,66.79
2019-02-20T05:05:02.261Z,66.92
2019-02-20T05:07:39.442Z,66.87
2019-02-20T05:10:16.966Z,66.62
2019-02-20T05:12:48.946Z,66.80
2019-02-20T05:15:19.890Z,66.81
2019-02-20T05:17:53.629Z,66.98
2019-02-20T05:20:24.889Z,66.83
2019-02-20T05:22:55.218Z,66.99
2019-02-20T05:25:25.437Z,66.79
2019-02-20T05:27:55.696Z,66.69
2019-02-20T05:30:57.391Z,66.81
2019-02-20T05:33:30.352Z,66.96
2019-02-20T05:36:03.665Z,66.87
2019-02-20T05:38:36.732Z,66.90
2019-02-20T05:41:16.160Z,66.68
2019-02-20T05:43:46.922Z,66.69
2019-02-20T05:46:18.834Z,66.60
2019-02-20T05:48:50.805Z,66.55
2019-02-20T05:51:21.539Z,66.44
2019-02-20T05:54:01.880Z,66.56
2019-02-20T05:56:35.736Z,66.74
2019-02-20T05:59:10.376Z,66.49
2019-02-20T06:01:40.811Z,66.39
2019-02-20T06:04:23.975Z,66.30
2019-02-20T06:06:56.544Z,66.35
2019-02-20T06:09:27.512Z,66.51
2019-02-20T06:11:58.695Z,66.59
2019-02-20T06:14:29.432Z,66.48
2019-02-20T06:17:00.626Z,66.36
2019-02-20T06:19:31.615Z,66.21
2019-02-20T06:22:02.434Z,66.30
2019-02-20T06:24:33.399Z,66.17
2019-02-20T06:27:04.184Z,66.12
2019-02-20T06:29:35.053Z,66.14
2019-02-20T06:32:08.265Z,66.02
2019-02-20T06:34:40.901Z,66.08
2019-02-20T06:37:16.206Z,66.07
2019-02-20T06:39:50.074Z,65.98
2019-02-20T06:42:25.660Z,65.91
2019-02-20T06:44:57.554Z,66.02
2019-02-20T06:47:29.926Z,65.87
2019-02-20T06:50:01.493Z,65.67
2019-02-20T06:52:34.193Z,65.82
2019-02-20T06:55:07.018Z,65.70
2019-02-20T06:57:41.916Z,65.56
2019-02-20T07:00:16.928Z,65.77
2019-02-20T07:02:52.817Z,65.62
2019-02-20T07:06:20.985Z,65.53
2019-02-20T07:09:30.512Z,65.38
2019-02-20T07:12:36.212Z,65.36
2019-02-20T07:15:50.925Z,64.95
2019-02-20T07:19:01.361Z,64.85
2019-02-20T07:22:24.285Z,64.87
2019-02-20T07:25:14.056Z,64.45
2019-02-20T07:30:50.023Z,64.12
2019-02-20T07:33:45.675Z,63.74
2019-02-20T07:36:16.820Z,63.68
2019-02-20T07:38:54.111Z,63.16
2019-02-20T07:44:50.338Z,62.50
2019-02-20T07:47:23.933Z,62.91
2019-02-20T07:50:00.037Z,62.63
2019-02-20T07:52:34.219Z,62.05
2019-02-20T07:55:15.902Z,62.13
2019-02-20T07:57:48.238Z,61.87
2019-02-20T08:00:24.233Z,61.79
2019-02-20T08:03:00.869Z,62.05
2019-02-20T08:05:40.106Z,61.75
2019-02-20T08:09:00.251Z,62.02
2019-02-20T08:11:31.028Z,62.13
2019-02-20T08:14:07.829Z,62.33
2019-02-20T08:16:51.974Z,62.06
2019-02-20T08:19:21.899Z,62.25
2019-02-20T08:21:53.395Z,62.23
2019-02-20T08:24:29.600Z,62.27
2019-02-20T08:27:05.498Z,62.16
2019-02-20T08:29:45.542Z,61.82
2019-02-20T08:32:24.274Z,61.97
2019-02-20T08:34:55.181Z,61.21
2019-02-20T08:37:44.171Z,60.92
2019-02-20T08:40:17.679Z,60.06
2019-02-20T08:42:56.021Z,57.95
2019-02-20T08:45:30.599Z,57.02
2019-02-20T08:48:04.501Z,55.60
2019-02-20T08:50:42.967Z,54.92
2019-02-20T08:53:21.239Z,54.80
2019-02-20T08:55:56.931Z,53.60
2019-02-20T08:58:34.542Z,53.33
2019-02-20T09:01:16.088Z,53.93
2019-02-20T09:03:45.493Z,53.86
2019-02-20T09:06:26.312Z,55.99
2019-02-20T09:09:11.303Z,55.38
2019-02-20T09:11:42.402Z,54.41
2019-02-20T09:14:17.355Z,54.83
2019-02-20T09:16:48.562Z,54.62
2019-02-20T09:19:41.311Z,54.11
2019-02-20T09:22:19.571Z,52.86
2019-02-20T09:25:07.608Z,51.64
2019-02-20T09:27:42.013Z,49.88
2019-02-20T09:30:37.076Z,50.92
2019-02-20T09:33:15.756Z,51.51
2019-02-20T09:36:12.953Z,52.32
2019-02-20T09:38:55.683Z,52.47
2019-02-20T09:41:38.275Z,52.43
2019-02-20T09:44:13.624Z,52.22
2019-02-20T09:46:43.936Z,51.51
2019-02-20T09:49:30.136Z,50.68
2019-02-20T09:52:08.692Z,50.30
2019-02-20T09:54:43.149Z,49.31
2019-02-20T09:57:26.886Z,48.72
2019-02-20T10:00:06.915Z,49.21
2019-02-20T10:02:47.291Z,48.50
2019-02-20T10:05:24.786Z,49.25
2019-02-20T10:08:01.964Z,49.36
2019-02-20T10:10:46.047Z,50.16
2019-02-20T10:13:17.717Z,50.58
2019-02-20T10:15:49.044Z,50.45
2019-02-20T10:18:19.788Z,49.96
2019-02-20T10:20:50.994Z,47.90
2019-02-20T10:23:22.785Z,46.75
2019-02-20T10:26:00.549Z,46.93
2019-02-20T10:28:26.019Z,45.83
2019-02-20T10:30:56.861Z,46.96
2019-02-20T10:33:29.644Z,45.67
2019-02-20T10:36:01.366Z,46.58
2019-02-20T10:38:32.237Z,45.96
2019-02-20T10:41:05.455Z,46.45
2019-02-20T10:43:36.226Z,47.39
2019-02-20T10:46:07.467Z,47.50
2019-02-20T10:48:38.320Z,46.31
2019-02-20T10:51:10.980Z,46.52
2019-02-20T10:53:42.166Z,46.20
2019-02-20T10:56:12.976Z,46.50
2019-02-20T10:58:43.890Z,47.08
2019-02-20T11:01:14.580Z,46.64
2019-02-20T11:03:51.460Z,47.04
2019-02-20T11:06:17.978Z,46.33
2019-02-20T11:08:50.401Z,46.11
2019-02-20T11:11:21.568Z,45.44
2019-02-20T11:13:55.708Z,44.96
2019-02-20T11:16:27.226Z,44.49
2019-02-20T11:19:04.374Z,44.72
2019-02-20T11:21:35.889Z,44.22
2019-02-20T11:24:08.723Z,44.46
2019-02-20T11:26:50.229Z,44.90
2019-02-20T11:31:40.206Z,44.90
2019-02-20T11:34:10.669Z,43.57
2019-02-20T11:36:41.033Z,44.22
2019-02-20T11:39:11.805Z,44.55
2019-02-20T11:41:43.933Z,45.29
2019-02-20T11:44:20.796Z,45.57
2019-02-20T11:46:47.892Z,46.71
2019-02-20T11:49:21.551Z,46.48
2019-02-20T11:51:54.072Z,45.13
2019-02-20T11:54:28.149Z,45.24
2019-02-20T11:56:58.779Z,46.18
2019-02-20T11:59:29.481Z,44.50
2019-02-20T12:02:06.581Z,44.05
2019-02-20T12:04:36.229Z,44.41
2019-02-20T12:07:12.574Z,45.33
2019-02-20T12:09:48.696Z,44.09
2019-02-20T12:12:20.891Z,45.90
2019-02-20T12:14:51.848Z,44.65
2019-02-20T12:17:25.520Z,44.24
2019-02-20T12:19:56.395Z,44.05
2019-02-20T12:23:38.422Z,44.10
2019-02-20T12:25:38.720Z,44.16
2019-02-20T12:28:36.683Z,43.61
2019-02-20T12:31:26.382Z,43.54
2019-02-20T12:34:21.858Z,43.87
2019-02-20T12:37:14.439Z,44.56
2019-02-20T12:39:56.553Z,45.12
2019-02-20T12:42:43.126Z,44.00
2019-02-20T12:45:46.391Z,43.68
2019-02-20T12:48:42.941Z,43.57
2019-02-20T12:51:38.939Z,43.20
2019-02-20T12:54:09.287Z,42.54
2019-02-20T12:56:51.069Z,42.37
2019-02-20T12:59:12.410Z,42.91
2019-02-20T13:01:42.697Z,44.13
2019-02-20T13:05:25.247Z,43.94
2019-02-20T13:08:09.394Z,44.72
2019-02-20T13:10:50.504Z,44.84
2019-02-20T13:13:43.509Z,45.25
2019-02-20T13:16:30.355Z,45.99
2019-02-20T13:19:13.179Z,45.42
2019-02-20T13:21:56.356Z,44.94
2019-02-20T13:24:43.971Z,41.69
2019-02-20T13:30:45.750Z,41.27
2019-02-20T13:33:37.445Z,43.11
2019-02-20T13:36:45.450Z,43.78
2019-02-20T13:39:20.906Z,42.99
2019-02-20T13:42:02.510Z,43.02
2019-02-20T13:44:39.310Z,43.52
2019-02-20T13:47:23.283Z,43.54
2019-02-20T13:49:57.515Z,44.11
2019-02-20T13:52:40.967Z,43.60
2019-02-20T13:55:14.893Z,44.69
2019-02-20T13:57:55.618Z,44.53
2019-02-20T14:00:36.180Z,45.01
2019-02-20T14:03:15.225Z,45.06
2019-02-20T14:05:52.686Z,44.43
2019-02-20T14:08:37.998Z,43.92
2019-02-20T14:11:11.126Z,43.18
2019-02-20T14:13:52.304Z,43.04
2019-02-20T14:16:36.249Z,43.93
2019-02-20T14:19:40.663Z,43.38
2019-02-20T14:22:08.278Z,43.45
2019-02-20T14:25:09.712Z,44.77
2019-02-20T14:27:49.777Z,44.91
2019-02-20T14:30:43.482Z,44.52
2019-02-20T14:35:34.392Z,44.67
2019-02-20T14:38:04.741Z,44.64
2019-02-20T14:40:35.833Z,44.50
2019-02-20T14:43:06.273Z,44.09
2019-02-20T14:45:36.597Z,44.12
2019-02-20T14:48:06.952Z,44.96
2019-02-20T14:50:37.787Z,45.46
2019-02-20T14:53:08.210Z,45.09
2019-02-20T14:55:38.649Z,46.02
2019-02-20T14:58:09.603Z,46.34
2019-02-20T15:00:40.641Z,46.57
2019-02-20T15:03:11.155Z,47.08
2019-02-20T15:05:41.914Z,47.58
2019-02-20T15:08:12.691Z,47.36
2019-02-20T15:10:43.109Z,47.29
2019-02-20T15:13:14.111Z,47.97
2019-02-20T15:15:44.951Z,48.23
2019-02-20T15:18:15.278Z,48.48
2019-02-20T15:21:00.040Z,48.50
2019-02-20T15:23:31.427Z,48.55
2019-02-20T15:26:07.741Z,48.52
2019-02-20T15:28:45.086Z,48.55
2019-02-20T15:31:17.393Z,48.92
2019-02-20T15:33:56.467Z,48.90
2019-02-20T15:36:25.563Z,48.81
2019-02-20T15:39:05.174Z,48.72
2019-02-20T15:41:35.937Z,48.51
2019-02-20T15:44:12.560Z,48.85
2019-02-20T15:46:44.069Z,48.84
2019-02-20T15:49:15.758Z,49.57
2019-02-20T15:51:49.897Z,49.57
2019-02-20T15:54:27.446Z,49.72
2019-02-20T15:57:01.391Z,50.55
2019-02-20T15:59:32.219Z,50.50
2019-02-20T16:02:03.713Z,50.70
2019-02-20T16:04:34.450Z,50.97
2019-02-20T16:07:05.051Z,51.17
2019-02-20T16:09:35.576Z,51.76
2019-02-20T16:12:16.821Z,51.70
2019-02-20T16:14:52.469Z,51.87
2019-02-20T16:17:23.283Z,52.14
2019-02-20T16:19:54.299Z,52.45
2019-02-20T16:22:26.389Z,52.54
2019-02-20T16:24:57.799Z,52.44
2019-02-20T16:27:31.184Z,52.91
2019-02-20T16:30:05.639Z,53.17
2019-02-20T16:32:39.744Z,53.16
2019-02-20T16:35:11.393Z,53.18
2019-02-20T16:37:47.186Z,53.48
2019-02-20T16:40:17.684Z,53.58
2019-02-20T16:43:07.724Z,53.68
2019-02-20T16:45:42.859Z,53.70
2019-02-20T16:48:17.641Z,53.79
2019-02-20T16:50:51.338Z,53.85
2019-02-20T16:53:25.042Z,53.94
2019-02-20T16:55:58.635Z,53.71
2019-02-20T16:58:33.571Z,53.63
2019-02-20T17:01:08.204Z,53.60
2019-02-20T17:04:04.483Z,53.50
2019-02-20T17:06:25.489Z,53.45
2019-02-20T17:09:01.103Z,53.91
2019-02-20T17:11:42.940Z,53.47
2019-02-20T17:14:16.036Z,53.67
2019-02-20T17:16:49.162Z,53.57
2019-02-20T17:19:23.438Z,53.53
2019-02-20T17:21:58.583Z,53.35
2019-02-20T17:24:33.361Z,53.45
2019-02-20T17:27:02.771Z,53.35
2019-02-20T17:29:34.415Z,53.21
2019-02-20T17:32:07.981Z,53.12
2019-02-20T17:34:39.174Z,53.19
2019-02-20T17:37:15.460Z,53.31
2019-02-20T17:39:48.268Z,53.42
2019-02-20T17:42:19.964Z,53.45
2019-02-20T17:44:51.587Z,53.47
2019-02-20T17:47:22.787Z,53.61
2019-02-20T17:49:53.278Z,53.70
2019-02-20T17:52:28.597Z,53.54
2019-02-20T17:55:02.687Z,53.54
2019-02-20T17:57:36.558Z,53.66
2019-02-20T18:00:12.566Z,53.90
2019-02-20T18:02:51.288Z,54.07
2019-02-20T18:05:33.867Z,54.26
2019-02-20T18:08:04.406Z,54.38
2019-02-20T18:10:46.340Z,54.86
2019-02-20T18:13:08.703Z,55.15
2019-02-20T18:15:43.040Z,54.90
2019-02-20T18:18:20.461Z,54.74
2019-02-20T18:20:54.381Z,54.84
2019-02-20T18:23:30.788Z,55.17
2019-02-20T18:26:02.337Z,54.72
2019-02-20T18:28:36.013Z,54.85
2019-02-20T18:31:14.040Z,54.91
2019-02-20T18:33:48.782Z,54.70
2019-02-20T18:36:23.810Z,54.77
2019-02-20T18:38:55.897Z,54.75
2019-02-20T18:41:32.554Z,54.77
2019-02-20T18:44:12.779Z,54.80
2019-02-20T18:46:44.160Z,54.94
2019-02-20T18:49:21.010Z,55.03
2019-02-20T18:51:56.533Z,54.79
2019-02-20T18:54:27.940Z,54.80
2019-02-20T18:56:59.033Z,55.06
2019-02-20T18:59:30.025Z,54.75
2019-02-20T19:02:14.798Z,54.80
2019-02-20T19:05:00.750Z,54.72
2019-02-20T19:07:36.964Z,54.72
2019-02-20T19:10:11.389Z,54.78
2019-02-20T19:13:53.280Z,54.81
2019-02-20T19:17:12.041Z,54.77
2019-02-20T19:20:50.320Z,54.96
2019-02-20T19:23:56.386Z,55.52
2019-02-20T19:27:41.415Z,56.31
2019-02-20T19:31:09.013Z,56.86
2019-02-20T19:34:28.125Z,57.28
2019-02-20T19:41:19.761Z,57.78
2019-02-20T19:44:45.813Z,57.69
2019-02-20T19:48:17.586Z,58.19
2019-02-20T19:51:23.941Z,57.87
2019-02-20T19:54:34.818Z,57.69
2019-02-20T19:58:40.401Z,57.60
2019-02-20T20:01:52.873Z,57.93
2019-02-20T20:13:45.767Z,57.68
2019-02-20T20:21:10.566Z,57.56
2019-02-20T20:27:06.471Z,57.65
2019-02-20T20:45:14.229Z,58.42
2019-02-20T20:48:12.370Z,59.15
2019-02-20T20:59:53.524Z,59.25
2019-02-20T21:21:24.230Z,60.32
2019-02-20T21:27:53.223Z,60.53
2019-02-20T21:41:22.791Z,61.62
2019-02-20T21:44:35.005Z,62.66
2019-02-20T21:48:22.081Z,63.31
2019-02-20T21:58:47.861Z,64.40
2019-02-20T22:01:26.663Z,64.84
2019-02-20T22:12:22.650Z,65.22
2019-02-20T22:16:03.543Z,65.48
2019-02-20T22:19:24.496Z,65.51
2019-02-20T22:26:43.189Z,65.58
2019-02-20T22:30:21.702Z,65.60
2019-02-20T22:34:05.782Z,65.81
2019-02-20T22:37:44.989Z,66.04
2019-02-20T22:40:52.072Z,66.08
2019-02-20T22:44:16.001Z,66.08
2019-02-20T22:47:11.837Z,65.98
2019-02-20T22:50:31.489Z,66.00
2019-02-20T22:53:34.862Z,65.94
2019-02-20T22:57:04.305Z,65.93
2019-02-20T23:00:16.492Z,65.98
2019-02-20T23:03:32.713Z,66.09
2019-02-20T23:06:48.485Z,66.08
2019-02-20T23:10:06.163Z,66.07
2019-02-20T23:13:12.715Z,65.77
2019-02-20T23:15:54.465Z,65.94
2019-02-20T23:18:38.061Z,65.82
2019-02-20T23:21:06.828Z,65.91
2019-02-20T23:23:37.791Z,65.73
2019-02-20T23:26:08.284Z,65.90
2019-02-20T23:29:50.051Z,65.77
2019-02-20T23:33:13.059Z,65.64
2019-02-20T23:36:03.670Z,65.82
2019-02-20T23:39:05.934Z,66.11
2019-02-20T23:41:36.109Z,66.35
2019-02-20T23:44:06.216Z,66.70
2019-02-20T23:50:04.183Z,67.27
2019-02-20T23:52:34.185Z,67.70
2019-02-20T23:55:04.210Z,68.05
2019-02-20T23:57:34.080Z,68.20
